Forum - METEO

POST X METEO

Amministratore
F.ranco52 04/05/2021 ore 08:19 Quota

(nessuno) Nowcasting Martedì 4 Maggio 2021

Buongiorno e buona Giornata a tutti


Notizie Meteo dell'Italia da il Meteo .It


http://ilMeteo.It


la Situazione Italiana vista dal Sat









il Radar Europeo









Brindisi

DATI NON PERVENUTI

Brindisi

DATI NON PERVENUTI


Gioia del Colle

METAR LIBV 040455Z 36003KT CAVOK 08/04 Q1018 RMK SCT SCT200 VIS MIN 9999 WIND THR32 02006KT WIND THR14 36002KT BLU=

METAR di Gioia del Colle del 4 alle 4,55z

Vento da 360░ N 3 nodi (5,556 km) VisibilitÓ 10000 m
Base delle Nubi e VisibilitÓ OK
Temp 8░C Dew 4░C Ur 75% hPa 1018
Aumento della NuvolositÓ a 3-4 ottavi
Copertura 3-4 ottavi da 20000 piedi (6096 m)
VisibilitÓ Minima 10000 m

Gioia del Colle

TAF LIBV 040500Z 0406/0415 35007KT CAVOK=

le TAF di Gioia del Colle delle 5z Previsioni dalle 6z alle 15z

Vento da 350* N NW 7 nodi (12,962 km) VisibilitÓ 10000 m
Base delle Nubi e VisibilitÓ OK
2726355
Buongiorno e buona Giornata a tutti Notizie Meteo dell'Italia da il Meteo .It http://ilMeteo.It la Situazione Italiana vista dal...
Discussione
04/05/2021 08:19:13
none
  • mi piace
    iLikeIt
    PublicVote

Vuoi partecipare anche tu a questa discussione?

Rispondi per lasciare il tuo messaggio in questa discussione